Amsterdam, New York
Current Conditions -  °F | °C
As of 12:55 AM on Tuesday 27 Jan 2015 (Local Time) from KNY0 Reporting Station
Broken Clouds Broken Clouds  
Wind Chill: -1°   Ceiling: 4000
Heat Index: 13°   Visibility: 10mi
Dew Point: -1°   Wind: 12mph
Humidity: 53%   Direction: 30°NNE
Pressure: 29.83"   Gusts: 18mph
Location:  42.94°N, 74.19°W
Report Text: KNY0 270555Z AUTO 03010G16KT 10SM BKN040 M10/M18 A2983 RMK AO2 T11051184 11095 21107 410861175
Loading
Personal Weather Stations






























Interactive Weather Map New forecast layout! Learn more

10-Day Weather Forecast

Advertisements
Track Severe Weather on mobile